Time;durP1;ratioP1;P1;durP2;ratioP2;P2;SDS_P1;SDS_P2;PMS_P1;PMS_P2;Temp;Humidity;BMP_temperature;BMP_pressure;BME280_temperature;BME280_humidity;BME280_pressure;Samples;Min_cycle;Max_cycle;Signal;HPM_P1;HPM_P2
2021/10/23 00:02:57;;;;;;;4.57;1.33;;;;;;;9.13;100.00;100622.94;6335976;22;20034;-56
2021/10/23 00:06:00;;;;;;;2.05;0.82;;;;;;;9.16;100.00;100624.03;6336194;22;20071;-56
2021/10/23 00:09:03;;;;;;;2.53;0.85;;;;;;;9.18;100.00;100623.59;6336331;22;20061;-56
2021/10/23 00:12:06;;;;;;;4.60;1.00;;;;;;;9.31;100.00;100627.13;6336336;22;20018;-56
2021/10/23 00:15:09;;;;;;;0.82;0.82;;;;;;;9.41;100.00;100620.41;6336282;22;20026;-56
2021/10/23 00:18:13;;;;;;;1.60;1.02;;;;;;;9.45;100.00;100615.50;6335948;22;20091;-56
2021/10/23 00:21:15;;;;;;;1.75;0.63;;;;;;;9.55;100.00;100608.81;6335999;22;20072;-56
2021/10/23 00:24:18;;;;;;;3.28;0.88;;;;;;;9.56;100.00;100608.38;6336058;22;20195;-56
2021/10/23 00:27:21;;;;;;;0.55;0.50;;;;;;;9.62;100.00;100614.91;6335903;22;20508;-56
2021/10/23 00:30:24;;;;;;;1.98;0.88;;;;;;;9.61;100.00;100610.59;6337376;22;20021;-56
2021/10/23 00:33:27;;;;;;;0.85;0.85;;;;;;;9.63;100.00;100626.81;6337657;22;20394;-56
2021/10/23 00:36:30;;;;;;;0.60;0.60;;;;;;;9.69;100.00;100625.00;6337675;22;20026;-56
2021/10/23 00:39:33;;;;;;;0.50;0.50;;;;;;;9.73;100.00;100617.31;6337980;22;20073;-55
2021/10/23 00:42:36;;;;;;;1.38;0.77;;;;;;;9.69;100.00;100619.44;6337905;22;20068;-55
2021/10/23 00:45:39;;;;;;;3.38;0.88;;;;;;;9.69;100.00;100625.78;6337282;22;20083;-55
2021/10/23 00:48:42;;;;;;;5.03;1.17;;;;;;;9.64;100.00;100611.66;6337669;22;20037;-55
2021/10/23 00:51:45;;;;;;;1.13;0.70;;;;;;;9.67;100.00;100628.25;6337825;22;20047;-55
2021/10/23 00:54:50;;;;;;;1.10;0.85;;;;;;;9.63;100.00;100633.16;6336681;22;20076;-55
2021/10/23 00:57:53;;;;;;;1.02;0.93;;;;;;;9.69;100.00;100625.78;6337378;22;20408;-55
2021/10/23 01:00:56;;;;;;;3.60;0.80;;;;;;;9.65;100.00;100616.00;6338115;22;20516;-56
2021/10/23 01:03:59;;;;;;;0.70;0.65;;;;;;;9.63;100.00;100621.25;6337575;22;20068;-56
2021/10/23 01:07:03;;;;;;;2.10;0.93;;;;;;;9.58;100.00;100624.59;6337184;22;20075;-56
2021/10/23 01:10:10;;;;;;;4.00;1.40;;;;;;;9.57;100.00;100617.50;6337674;22;20022;-56
2021/10/23 01:13:13;;;;;;;2.53;0.60;;;;;;;9.57;100.00;100618.25;6336365;22;20465;-55
2021/10/23 01:16:16;;;;;;;1.85;0.93;;;;;;;9.65;100.00;100629.91;6337379;22;20053;-55
2021/10/23 01:19:20;;;;;;;2.38;1.02;;;;;;;9.56;100.00;100621.50;6319363;22;20068;-55
2021/10/23 01:22:26;;;;;;;1.58;1.13;;;;;;;9.71;100.00;100623.31;6319133;22;20098;-55
2021/10/23 01:25:30;;;;;;;1.23;0.93;;;;;;;9.92;100.00;100616.22;6339383;22;20083;-55
2021/10/23 01:28:44;;;;;;;1.00;0.35;;;;;;;9.96;100.00;100611.31;6339487;22;20076;-55
2021/10/23 01:31:50;;;;;;;5.82;0.73;;;;;;;10.07;100.00;100606.13;6319554;22;20017;-55
2021/10/23 01:34:54;;;;;;;1.90;0.95;;;;;;;10.11;100.00;100601.25;6337504;22;20029;-55
2021/10/23 01:37:57;;;;;;;0.47;0.38;;;;;;;10.10;100.00;100608.00;6320296;22;20347;-55
2021/10/23 01:41:00;;;;;;;0.30;0.10;;;;;;;10.13;100.00;100606.34;6338453;22;20477;-55
2021/10/23 01:44:04;;;;;;;0.25;0.25;;;;;;;10.14;100.00;100599.53;6339247;22;20071;-55
2021/10/23 01:47:07;;;;;;;0.10;0.10;;;;;;;10.10;100.00;100599.66;6339335;22;20351;-55
2021/10/23 01:50:15;;;;;;;1.92;0.63;;;;;;;10.22;100.00;100589.72;6339697;22;20120;-55
2021/10/23 01:53:18;;;;;;;1.17;0.52;;;;;;;10.18;100.00;100595.41;6337592;22;20087;-55
2021/10/23 01:56:23;;;;;;;1.27;0.55;;;;;;;10.17;100.00;100582.72;6339319;22;20343;-55
2021/10/23 01:59:26;;;;;;;2.28;0.43;;;;;;;10.11;100.00;100592.91;6339118;22;20053;-55
2021/10/23 02:02:29;;;;;;;1.88;0.55;;;;;;;10.12;100.00;100591.66;6339366;22;20026;-55
2021/10/23 02:05:32;;;;;;;2.05;1.25;;;;;;;10.12;100.00;100591.66;6320051;22;20071;-55
2021/10/23 02:08:34;;;;;;;1.35;0.73;;;;;;;10.16;100.00;100586.72;6339299;22;20025;-55
2021/10/23 02:11:38;;;;;;;1.80;0.52;;;;;;;10.18;100.00;100589.09;6338709;22;20021;-55
2021/10/23 02:14:40;;;;;;;2.17;0.70;;;;;;;10.17;100.00;100588.28;6339095;22;20425;-55
2021/10/23 02:17:49;;;;;;;1.27;0.50;;;;;;;10.20;100.00;100584.59;6339009;22;20048;-55
2021/10/23 02:20:53;;;;;;;1.15;0.93;;;;;;;10.15;100.00;100581.63;6339439;22;20076;-55
2021/10/23 02:23:56;;;;;;;2.30;0.63;;;;;;;10.14;100.00;100586.41;6339276;22;20351;-55
2021/10/23 02:26:59;;;;;;;0.73;0.55;;;;;;;10.15;100.00;100585.19;6339553;22;20036;-55
2021/10/23 02:30:05;;;;;;;0.70;0.25;;;;;;;10.16;100.00;100580.38;6339453;22;20116;-55
2021/10/23 02:33:09;;;;;;;0.95;0.60;;;;;;;10.15;100.00;100579.63;6339477;22;20083;-55
2021/10/23 02:36:11;;;;;;;3.58;0.82;;;;;;;10.11;100.00;100579.00;6339556;22;20459;-55
2021/10/23 02:39:14;;;;;;;1.42;0.50;;;;;;;10.10;100.00;100582.19;6339444;22;20106;-55
2021/10/23 02:42:17;;;;;;;0.30;0.30;;;;;;;10.04;100.00;100584.78;6338665;22;20025;-56
2021/10/23 02:45:20;;;;;;;0.93;0.45;;;;;;;10.05;100.00;100583.53;6338525;22;20067;-55
2021/10/23 02:48:23;;;;;;;3.13;0.88;;;;;;;10.04;100.00;100578.44;6339181;22;20030;-55
2021/10/23 02:51:26;;;;;;;1.65;0.90;;;;;;;10.06;100.00;100579.53;6339178;22;20516;-55
2021/10/23 02:54:32;;;;;;;0.95;0.60;;;;;;;10.09;100.00;100581.38;6338950;22;20030;-55
2021/10/23 02:57:35;;;;;;;0.20;0.20;;;;;;;10.10;100.00;100582.19;6338897;22;20037;-55
2021/10/23 03:00:38;;;;;;;1.38;0.60;;;;;;;10.15;100.00;100576.84;6339026;22;20022;-55
2021/10/23 03:03:41;;;;;;;0.20;0.20;;;;;;;10.17;100.00;100579.94;6339111;22;20071;-55
2021/10/23 03:06:44;;;;;;;0.52;0.40;;;;;;;10.13;100.00;100575.75;6339236;22;20149;-55
2021/10/23 03:09:48;;;;;;;1.20;0.40;;;;;;;10.14;100.00;100571.72;6339065;22;20075;-55
2021/10/23 03:12:51;;;;;;;1.95;0.82;;;;;;;10.15;100.00;100568.50;6338991;22;20110;-55
2021/10/23 03:15:55;;;;;;;2.45;0.63;;;;;;;10.19;100.00;100562.78;6338076;22;20520;-55
2021/10/23 03:18:59;;;;;;;0.20;0.20;;;;;;;10.21;100.00;100569.44;6338817;22;20022;-55
2021/10/23 03:22:03;;;;;;;0.90;0.63;;;;;;;10.21;100.00;100565.88;6338786;22;20091;-55
2021/10/23 03:25:06;;;;;;;0.40;0.15;;;;;;;10.27;100.00;100569.63;6339028;22;20020;-55
2021/10/23 03:28:09;;;;;;;0.40;0.20;;;;;;;10.36;100.00;100567.66;6338924;22;20087;-55
2021/10/23 03:31:13;;;;;;;0.63;0.25;;;;;;;10.40;100.00;100568.31;6339168;22;20022;-56
2021/10/23 03:34:16;;;;;;;0.95;0.82;;;;;;;10.40;100.00;100568.31;6338867;22;20071;-57
2021/10/23 03:37:19;;;;;;;1.85;0.32;;;;;;;10.41;100.00;100575.44;6339117;22;20025;-57
2021/10/23 03:40:22;;;;;;;0.32;0.20;;;;;;;10.40;100.00;100573.88;6338788;22;20348;-57
2021/10/23 03:43:25;;;;;;;1.50;0.77;;;;;;;10.28;100.00;100577.53;6338967;22;20071;-57
2021/10/23 03:46:28;;;;;;;0.22;0.13;;;;;;;10.34;100.00;100578.50;6338511;22;20026;-57
2021/10/23 03:49:31;;;;;;;0.30;0.30;;;;;;;10.35;100.00;100570.91;6338340;22;20056;-57
2021/10/23 03:52:33;;;;;;;0.25;0.20;;;;;;;10.34;100.00;100575.72;6338167;22;20025;-57
2021/10/23 03:55:36;;;;;;;0.57;0.57;;;;;;;10.38;100.00;100570.78;6338778;22;20071;-57
2021/10/23 03:58:39;;;;;;;0.47;0.38;;;;;;;10.51;100.00;100567.88;6338304;22;20467;-57
2021/10/23 04:01:42;;;;;;;0.20;0.20;;;;;;;10.57;100.00;100569.63;6338734;22;20057;-57
2021/10/23 04:04:44;;;;;;;0.20;0.10;;;;;;;10.56;100.00;100570.09;6338392;22;20075;-57
2021/10/23 04:07:48;;;;;;;0.20;0.20;;;;;;;10.57;100.00;100566.84;6338802;22;20026;-57
2021/10/23 04:10:51;;;;;;;0.45;0.35;;;;;;;10.56;100.00;100576.44;6338351;22;20022;-57
2021/10/23 04:13:54;;;;;;;0.38;0.17;;;;;;;10.58;100.00;100573.19;6338675;22;20064;-57
2021/10/23 04:16:57;;;;;;;2.40;0.35;;;;;;;10.62;100.00;100571.81;6338169;22;20021;-57
2021/10/23 04:20:00;;;;;;;0.55;0.28;;;;;;;10.64;100.00;100569.34;6338186;22;20037;-57
2021/10/23 04:23:02;;;;;;;3.50;0.50;;;;;;;10.72;100.00;100566.28;6338377;22;20026;-57
2021/10/23 04:26:05;;;;;;;0.25;0.25;;;;;;;10.74;100.00;100574.94;6338404;22;20025;-57
2021/10/23 04:29:08;;;;;;;0.10;0.10;;;;;;;10.71;100.00;100570.28;6338186;22;20053;-57
2021/10/23 04:32:11;;;;;;;10.52;0.43;;;;;;;10.66;100.00;100566.09;6338782;22;20065;-57
2021/10/23 04:35:14;;;;;;;0.10;0.10;;;;;;;10.64;100.00;100560.19;6338228;22;20045;-57
2021/10/23 04:38:18;;;;;;;0.43;0.28;;;;;;;10.60;100.00;100560.34;6338590;22;20029;-57
2021/10/23 04:41:21;;;;;;;0.20;0.20;;;;;;;10.59;100.00;100558.78;6338073;22;20108;-57
2021/10/23 04:44:24;;;;;;;0.20;0.20;;;;;;;10.57;100.00;100547.34;6338257;22;20042;-57
2021/10/23 04:47:27;;;;;;;0.57;0.57;;;;;;;10.37;100.00;100546.94;6338055;22;20068;-57
2021/10/23 04:50:30;;;;;;;0.10;0.10;;;;;;;10.16;100.00;100547.75;6338515;22;20340;-57
2021/10/23 04:53:33;;;;;;;1.42;0.45;;;;;;;10.02;100.00;100542.72;6337369;22;20033;-57
2021/10/23 04:56:36;;;;;;;0.30;0.30;;;;;;;9.88;100.00;100543.25;6337942;22;20021;-57
2021/10/23 04:59:39;;;;;;;0.10;0.10;;;;;;;9.77;100.00;100542.84;6338275;22;20048;-57
2021/10/23 05:02:42;;;;;;;0.22;0.22;;;;;;;9.57;100.00;100550.75;6338275;22;20332;-57
2021/10/23 05:05:46;;;;;;;0.30;0.25;;;;;;;9.40;100.00;100541.06;6338244;22;20322;-57
2021/10/23 05:08:49;;;;;;;0.13;0.10;;;;;;;9.29;100.00;100541.41;6338562;22;20026;-57
2021/10/23 05:11:52;;;;;;;0.28;0.25;;;;;;;9.23;100.00;100547.97;6338217;22;20022;-57
2021/10/23 05:14:55;;;;;;;0.10;0.10;;;;;;;9.22;100.00;100546.44;6338204;22;20057;-56
2021/10/23 05:17:57;;;;;;;0.20;0.20;;;;;;;9.24;100.00;100544.75;6339781;22;20470;-57
2021/10/23 05:21:01;;;;;;;0.40;0.20;;;;;;;9.25;100.00;100540.75;6340104;22;20042;-57
2021/10/23 05:24:04;;;;;;;0.10;0.10;;;;;;;9.36;100.00;100527.25;6340107;22;20087;-56
2021/10/23 05:27:07;;;;;;;3.70;0.73;;;;;;;9.45;100.00;100534.91;6339934;22;20025;-56
2021/10/23 05:30:11;;;;;;;0.40;0.40;;;;;;;9.48;100.00;100532.00;6339919;22;20351;-56
2021/10/23 05:33:14;;;;;;;0.50;0.20;;;;;;;9.53;100.00;100534.19;6339741;22;20037;-56
2021/10/23 05:36:17;;;;;;;2.90;0.30;;;;;;;9.62;100.00;100541.81;6339692;22;20098;-57
2021/10/23 05:39:20;;;;;;;0.28;0.20;;;;;;;9.62;100.00;100541.81;6339637;22;20025;-56
2021/10/23 05:42:23;;;;;;;0.20;0.20;;;;;;;9.61;100.00;100543.06;6339542;22;20027;-57
2021/10/23 05:45:26;;;;;;;0.10;0.10;;;;;;;9.70;100.00;100543.88;6339513;22;20039;-56
2021/10/23 05:48:29;;;;;;;1.48;0.55;;;;;;;9.78;100.00;100542.41;6339690;22;20049;-56
2021/10/23 05:51:33;;;;;;;0.10;0.10;;;;;;;9.86;100.00;100548.47;6339843;22;20021;-57
2021/10/23 05:54:38;;;;;;;1.33;0.63;;;;;;;9.95;100.00;100548.53;6320517;22;20661;-56
2021/10/23 05:57:42;;;;;;;0.10;0.10;;;;;;;9.98;100.00;100544.09;6339140;22;20048;-57
2021/10/23 06:00:54;;;;;;;0.20;0.20;;;;;;;10.06;100.00;100548.16;6339617;22;20072;-57
2021/10/23 06:03:57;;;;;;;0.10;0.10;;;;;;;10.08;100.00;100543.69;6339610;22;20026;-57
2021/10/23 06:07:00;;;;;;;0.10;0.10;;;;;;;10.15;100.00;100554.56;6339844;22;20075;-56
2021/10/23 06:10:05;;;;;;;2.45;0.43;;;;;;;10.24;100.00;100549.06;6339604;22;20021;-56
2021/10/23 06:13:10;;;;;;;0.55;0.20;;;;;;;10.30;100.00;100552.81;6339784;22;20018;-57
2021/10/23 06:16:14;;;;;;;0.52;0.38;;;;;;;10.34;100.00;100547.88;6339071;22;20486;-57
2021/10/23 06:19:17;;;;;;;0.43;0.28;;;;;;;10.36;100.00;100548.19;6339467;22;20025;-57
2021/10/23 06:22:20;;;;;;;0.40;0.35;;;;;;;10.33;100.00;100543.50;6339138;22;20041;-57
2021/10/23 06:25:23;;;;;;;0.50;0.13;;;;;;;10.30;100.00;100541.66;6338989;22;20083;-56
2021/10/23 06:28:26;;;;;;;0.15;0.10;;;;;;;10.34;100.00;100547.88;6338720;22;20397;-56
2021/10/23 06:31:29;;;;;;;0.22;0.22;;;;;;;10.43;100.00;100545.13;6338895;22;20025;-57
2021/10/23 06:34:32;;;;;;;0.17;0.15;;;;;;;10.35;100.00;100549.41;6338705;22;20025;-56
2021/10/23 06:37:35;;;;;;;0.20;0.20;;;;;;;10.34;100.00;100553.44;6338652;22;20449;-56
2021/10/23 06:40:39;;;;;;;1.60;0.20;;;;;;;10.37;100.00;100546.94;6338923;22;20022;-56
2021/10/23 06:43:42;;;;;;;1.10;0.30;;;;;;;10.37;100.00;100544.16;6338612;22;20044;-56
2021/10/23 06:46:45;;;;;;;0.10;0.10;;;;;;;10.40;100.00;100536.91;6338749;22;20041;-56
2021/10/23 06:49:48;;;;;;;0.60;0.30;;;;;;;10.42;100.00;100540.78;6338721;22;20029;-56
2021/10/23 06:52:51;;;;;;;1.60;1.33;;;;;;;10.40;100.00;100534.09;6339287;22;20025;-56
2021/10/23 06:55:54;;;;;;;0.52;0.22;;;;;;;10.48;100.00;100533.38;6339219;22;20034;-56
2021/10/23 06:58:57;;;;;;;1.23;0.30;;;;;;;10.49;100.00;100537.72;6338494;22;20408;-57
2021/10/23 07:02:00;;;;;;;1.15;0.45;;;;;;;10.53;100.00;100538.34;6319259;22;20026;-56
2021/10/23 07:05:05;;;;;;;0.30;0.30;;;;;;;10.54;100.00;100530.78;6338683;22;20112;-57
2021/10/23 07:08:08;;;;;;;0.13;0.13;;;;;;;10.53;100.00;100537.56;6319747;22;20021;-56
2021/10/23 07:11:11;;;;;;;0.75;0.55;;;;;;;10.52;100.00;100547.94;6338860;22;20072;-56
2021/10/23 07:14:14;;;;;;;0.38;0.38;;;;;;;10.55;100.00;100544.22;6338984;22;20457;-57
2021/10/23 07:17:17;;;;;;;0.20;0.20;;;;;;;10.58;100.00;100551.69;6338929;22;20029;-57
2021/10/23 07:20:20;;;;;;;0.20;0.20;;;;;;;10.58;100.00;100557.25;6339084;22;20022;-56
2021/10/23 07:23:23;;;;;;;1.45;0.57;;;;;;;10.62;100.00;100559.88;6338986;22;20401;-56
2021/10/23 07:26:26;;;;;;;0.35;0.35;;;;;;;10.63;100.00;100553.84;6338998;22;20394;-56
2021/10/23 07:29:29;;;;;;;1.05;0.52;;;;;;;10.60;100.00;100552.00;6338994;22;20025;-56
2021/10/23 07:32:32;;;;;;;0.25;0.20;;;;;;;10.74;100.00;100547.09;6339235;22;20022;-56
2021/10/23 07:35:37;;;;;;;1.75;0.13;;;;;;;10.82;100.00;100553.91;6319414;22;20075;-57
2021/10/23 07:38:40;;;;;;;1.85;0.50;;;;;;;10.83;100.00;100555.47;6319580;22;20022;-56
2021/10/23 07:41:43;;;;;;;0.28;0.20;;;;;;;10.85;100.00;100553.00;6339049;22;20025;-57
2021/10/23 07:44:46;;;;;;;0.30;0.30;;;;;;;10.87;100.00;100559.66;6338782;22;20025;-56
2021/10/23 07:47:49;;;;;;;0.75;0.30;;;;;;;10.93;100.00;100548.69;6339157;22;20049;-56
2021/10/23 07:50:53;;;;;;;3.40;0.60;;;;;;;10.88;100.00;100563.22;6338955;22;20531;-56
2021/10/23 07:53:58;;;;;;;0.40;0.38;;;;;;;10.90;100.00;100571.88;6338285;22;20045;-56
2021/10/23 07:57:03;;;;;;;1.10;0.40;;;;;;;10.93;100.00;100576.56;6338923;22;20352;-56
2021/10/23 08:00:08;;;;;;;1.33;0.45;;;;;;;10.96;100.00;100581.22;6338034;22;20037;-56
2021/10/23 08:03:12;;;;;;;0.20;0.20;;;;;;;11.02;100.00;100585.69;6338797;22;20045;-57
2021/10/23 08:06:15;;;;;;;0.55;0.30;;;;;;;11.14;100.00;100590.38;6338423;22;20516;-56
2021/10/23 08:09:18;;;;;;;0.35;0.35;;;;;;;11.22;100.00;100588.06;6338703;22;20101;-56
2021/10/23 08:12:21;;;;;;;0.35;0.20;;;;;;;11.25;100.00;100589.94;6338587;22;20022;-56
2021/10/23 08:15:28;;;;;;;0.55;0.30;;;;;;;11.33;100.00;100585.59;6338548;22;20026;-57
2021/10/23 08:18:31;;;;;;;0.25;0.15;;;;;;;11.39;100.00;100581.75;6319409;22;20071;-57
2021/10/23 08:21:35;;;;;;;2.08;0.47;;;;;;;11.42;100.00;100586.41;6338520;22;20030;-57
2021/10/23 08:24:40;;;;;;;1.85;0.30;;;;;;;11.47;100.00;100593.38;6338544;22;20025;-57
2021/10/23 08:27:45;;;;;;;0.50;0.30;;;;;;;11.52;100.00;100595.53;6338751;22;20049;-57
2021/10/23 08:30:49;;;;;;;0.40;0.40;;;;;;;11.58;100.00;100599.28;6339024;22;20022;-57
2021/10/23 08:33:55;;;;;;;0.63;0.63;;;;;;;11.66;100.00;100599.72;6319622;22;20080;-57
2021/10/23 08:36:58;;;;;;;0.10;0.10;;;;;;;11.64;100.00;100597.41;6338995;22;20076;-57
2021/10/23 08:40:03;;;;;;;0.20;0.13;;;;;;;11.62;100.00;100588.75;6318899;22;20025;-57
2021/10/23 08:43:08;;;;;;;1.17;0.63;;;;;;;11.66;100.00;100588.56;6338588;22;20073;-57
2021/10/23 08:46:20;;;;;;;6.38;0.73;;;;;;;11.69;100.00;100582.88;6338304;22;20026;-57
2021/10/23 08:49:24;;;;;;;2.85;0.73;;;;;;;11.82;100.00;100583.50;6338264;22;20108;-57
2021/10/23 08:52:28;;;;;;;3.58;0.47;;;;;;;11.91;100.00;100589.06;6339990;22;20033;-57
2021/10/23 08:55:31;;;;;;;1.83;0.47;;;;;;;12.01;100.00;100582.22;6340140;22;20061;-57
2021/10/23 08:58:35;;;;;;;1.50;0.55;;;;;;;12.09;100.00;100591.03;6339615;22;20030;-57
2021/10/23 09:01:38;;;;;;;15.30;0.85;;;;;;;12.15;100.00;100592.75;6339861;22;20025;-57
2021/10/23 09:04:41;;;;;;;10.02;1.55;;;;;;;12.15;100.00;100598.31;6339526;22;20095;-55
2021/10/23 09:07:50;;;;;;;2.38;0.88;;;;;;;12.15;100.00;100584.38;6340155;22;20030;-57
2021/10/23 09:10:56;;;;;;;0.88;0.73;;;;;;;12.15;100.00;100586.38;6339517;22;20022;-57
2021/10/23 09:14:20;;;;;;;0.20;0.20;;;;;;;12.24;100.00;100591.16;6339910;22;20057;-57
2021/10/23 09:17:23;;;;;;;0.32;0.32;;;;;;;12.29;100.00;100584.94;6320563;22;20319;-57
2021/10/23 09:20:26;;;;;;;0.38;0.20;;;;;;;12.39;100.00;100583.69;6339784;22;20071;-58
2021/10/23 09:23:29;;;;;;;1.08;0.50;;;;;;;12.49;100.00;100577.59;6339610;22;20068;-57
2021/10/23 09:26:37;;;;;;;1.02;0.32;;;;;;;12.61;100.00;100578.63;6339878;22;20048;-57
2021/10/23 09:29:40;;;;;;;0.20;0.10;;;;;;;12.74;100.00;100574.41;6339549;22;20041;-57
2021/10/23 09:32:58;;;;;;;1.67;0.70;;;;;;;12.83;100.00;100574.34;6339871;22;20067;-57
2021/10/23 09:36:03;;;;;;;0.85;0.30;;;;;;;12.87;100.00;100568.56;6339609;22;20103;-57
2021/10/23 09:39:08;;;;;;;4.30;0.90;;;;;;;12.86;100.00;100553.06;6339817;22;20030;-57
2021/10/23 09:42:18;;;;;;;0.30;0.30;;;;;;;12.98;100.00;100556.88;6339769;22;20083;-57
2021/10/23 09:45:21;;;;;;;1.85;0.82;;;;;;;12.94;100.00;100551.47;6339473;22;20036;-57
2021/10/23 09:48:41;;;;;;;1.40;0.25;;;;;;;12.95;100.00;100550.19;6339471;22;20026;-56
2021/10/23 09:51:44;;;;;;;0.47;0.13;;;;;;;13.06;100.00;100553.28;6339413;22;20083;-55
2021/10/23 09:55:05;;;;;;;0.52;0.38;;;;;;;13.13;100.00;100540.97;6339245;22;20057;-55
2021/10/23 09:58:24;;;;;;;1.98;0.40;;;;;;;13.24;100.00;100530.78;6339690;22;20025;-57
2021/10/23 10:01:32;;;;;;;4.65;0.40;;;;;;;13.30;100.00;100531.66;6339003;22;20482;-57
2021/10/23 10:04:35;;;;;;;3.50;1.38;;;;;;;13.44;100.00;100538.56;6339096;22;20454;-57
2021/10/23 10:07:39;;;;;;;2.45;0.98;;;;;;;13.52;100.00;100542.53;6320728;22;20105;-57
2021/10/23 10:10:44;;;;;;;2.65;0.85;;;;;;;13.63;100.00;100539.94;6339053;22;20064;-57
2021/10/23 10:13:49;;;;;;;4.85;1.20;;;;;;;13.68;100.00;100534.47;6339335;22;20072;-57
2021/10/23 10:16:55;;;;;;;7.47;2.20;;;;;;;13.71;100.00;100531.97;6338519;22;20061;-57
2021/10/23 10:20:02;;;;;;;7.05;3.22;;;;;;;13.77;100.00;100527.22;6339364;22;20076;-57
2021/10/23 10:23:05;;;;;;;10.02;2.38;;;;;;;13.94;100.00;100542.31;6339100;22;20520;-57
2021/10/23 10:26:25;;;;;;;3.83;2.28;;;;;;;14.05;100.00;100528.50;6339353;22;20393;-57
2021/10/23 10:29:57;;;;;;;8.05;1.52;;;;;;;14.26;100.00;100532.94;6339057;22;20022;-57
2021/10/23 10:33:27;;;;;;;1.10;0.40;;;;;;;14.38;100.00;100529.06;6339437;22;20064;-57
2021/10/23 10:36:35;;;;;;;6.82;1.80;;;;;;;14.38;100.00;100526.25;6339319;22;20022;-57
2021/10/23 10:39:54;;;;;;;2.92;0.52;;;;;;;14.40;100.00;100523.78;6320397;22;20033;-57
2021/10/23 10:42:59;;;;;;;2.55;0.40;;;;;;;14.50;100.00;100528.00;6339084;22;20057;-57
2021/10/23 10:46:04;;;;;;;3.30;1.00;;;;;;;14.63;100.00;100522.84;6338980;22;20021;-57
2021/10/23 10:49:43;;;;;;;0.70;0.25;;;;;;;14.74;100.00;100522.25;6319971;22;20089;-58
2021/10/23 10:52:52;;;;;;;0.80;0.45;;;;;;;14.82;100.00;100518.53;6319619;22;20018;-57
2021/10/23 10:55:59;;;;;;;0.75;0.40;;;;;;;14.79;100.00;100522.31;6338963;22;20068;-57
2021/10/23 10:59:03;;;;;;;0.95;0.20;;;;;;;14.85;100.00;100520.38;6338888;22;20072;-56
2021/10/23 11:02:07;;;;;;;2.85;0.70;;;;;;;14.91;100.00;100518.41;6338819;22;20094;-56
2021/10/23 11:05:18;;;;;;;8.55;1.23;;;;;;;14.98;100.00;100515.19;6338835;22;20021;-56
2021/10/23 11:08:21;;;;;;;4.15;1.02;;;;;;;15.02;100.00;100524.19;6339008;22;20029;-57
2021/10/23 11:11:24;;;;;;;13.05;0.93;;;;;;;14.99;100.00;100519.53;6338706;22;20098;-57
2021/10/23 11:14:36;;;;;;;2.83;0.40;;;;;;;14.99;100.00;100508.31;6338757;22;20392;-57
2021/10/23 11:17:40;;;;;;;2.22;0.45;;;;;;;15.17;100.00;100510.84;6338633;22;20133;-57
2021/10/23 11:20:45;;;;;;;2.00;0.77;;;;;;;15.32;100.00;100501.56;6338067;22;20048;-58
2021/10/23 11:23:53;;;;;;;9.32;1.02;;;;;;;15.34;100.00;100499.03;6319419;22;20025;-58
2021/10/23 11:26:56;;;;;;;6.80;1.45;;;;;;;15.39;100.00;100490.69;6338340;22;20022;-58
2021/10/23 11:30:24;;;;;;;2.63;0.75;;;;;;;15.38;100.00;100493.97;6338805;22;20026;-57
2021/10/23 11:33:27;;;;;;;4.00;0.47;;;;;;;15.39;100.00;100492.72;6338549;22;20393;-57
2021/10/23 11:36:32;;;;;;;0.63;0.28;;;;;;;15.37;100.00;100495.25;6338643;22;20393;-57
2021/10/23 11:39:36;;;;;;;1.05;0.10;;;;;;;15.31;100.00;100483.19;6338754;22;20030;-57
2021/10/23 11:42:50;;;;;;;1.67;0.68;;;;;;;15.17;100.00;100488.41;6319512;22;20110;-57
2021/10/23 11:45:55;;;;;;;0.57;0.40;;;;;;;15.25;100.00;100490.75;6338548;22;20411;-57
2021/10/23 11:49:03;;;;;;;1.35;0.50;;;;;;;15.39;100.00;100479.47;6338260;22;20022;-56
2021/10/23 11:52:07;;;;;;;1.50;0.47;;;;;;;15.58;100.00;100483.53;6338568;22;20335;-57
2021/10/23 11:55:26;;;;;;;0.35;0.30;;;;;;;15.72;100.00;100487.50;6338214;22;20351;-57
2021/10/23 11:58:31;;;;;;;0.50;0.20;;;;;;;15.77;100.00;100475.53;6338240;22;20025;-57
2021/10/23 12:01:35;;;;;;;2.10;0.65;;;;;;;15.73;100.00;100475.00;6338348;22;20061;-57
2021/10/23 12:04:38;;;;;;;0.40;0.10;;;;;;;15.74;100.00;100474.50;6338142;22;20025;-57
2021/10/23 12:07:41;;;;;;;0.20;0.10;;;;;;;15.67;100.00;100485.41;6319503;22;20025;-57
2021/10/23 12:11:19;;;;;;;0.63;0.57;;;;;;;15.61;100.00;100476.16;6338258;22;20478;-57
2021/10/23 12:14:23;;;;;;;0.50;0.20;;;;;;;15.61;100.00;100478.97;6338444;22;20022;-57
2021/10/23 12:17:26;;;;;;;1.90;0.77;;;;;;;15.64;100.00;100477.97;6338318;22;20025;-57
2021/10/23 12:20:34;;;;;;;1.63;0.88;;;;;;;15.59;100.00;100470.28;6338412;22;20041;-57
2021/10/23 12:23:56;;;;;;;1.75;0.52;;;;;;;15.57;100.00;100472.81;6338204;22;20076;-57
2021/10/23 12:27:21;;;;;;;1.42;0.50;;;;;;;15.62;100.00;100477.69;6340421;22;20071;-57
2021/10/23 12:30:24;;;;;;;3.05;0.88;;;;;;;15.60;100.00;100471.81;6340373;22;20025;-57
2021/10/23 12:33:27;;;;;;;3.80;0.65;;;;;;;15.50;100.00;100467.63;6340411;22;20021;-57
2021/10/23 12:36:32;;;;;;;4.82;1.17;;;;;;;15.38;100.00;100461.06;6340493;22;20077;-57
2021/10/23 12:39:35;;;;;;;0.82;0.20;;;;;;;15.19;100.00;100465.47;6340186;22;20080;-56
2021/10/23 12:42:44;;;;;;;2.03;0.32;;;;;;;15.18;100.00;100459.06;6339929;22;20336;-57
2021/10/23 12:45:51;;;;;;;1.38;0.20;;;;;;;15.21;100.00;100451.72;6340103;22;20347;-56
2021/10/23 12:48:54;;;;;;;2.50;0.55;;;;;;;15.15;100.00;100439.66;6321473;22;20028;-58
2021/10/23 12:51:57;;;;;;;2.58;0.32;;;;;;;15.15;100.00;100448.84;6321216;22;20075;-57
2021/10/23 12:55:02;;;;;;;1.83;0.30;;;;;;;15.10;100.00;100446.75;6339224;22;20081;-57
2021/10/23 12:58:05;;;;;;;0.60;0.40;;;;;;;15.13;100.00;100445.75;6320155;22;20025;-56
2021/10/23 13:01:08;;;;;;;0.68;0.25;;;;;;;15.20;100.00;100445.31;6339421;22;20022;-57
2021/10/23 13:04:11;;;;;;;2.20;0.57;;;;;;;15.33;100.00;100435.78;6337999;22;20026;-57
2021/10/23 13:07:14;;;;;;;1.08;0.30;;;;;;;15.38;100.00;100435.03;6338639;22;20462;-55
2021/10/23 13:10:18;;;;;;;0.52;0.25;;;;;;;15.42;100.00;100441.97;6338037;22;20079;-55
2021/10/23 13:13:21;;;;;;;5.10;0.45;;;;;;;15.38;100.00;100426.63;6338964;22;20021;-55
2021/10/23 13:16:24;;;;;;;1.10;0.30;;;;;;;15.23;100.00;100426.72;6338271;22;20021;-55
2021/10/23 13:19:26;;;;;;;0.90;0.30;;;;;;;15.08;100.00;100414.81;6339973;22;20071;-55
2021/10/23 13:22:29;;;;;;;1.38;0.70;;;;;;;14.95;100.00;100420.81;6339811;22;20064;-55
2021/10/23 13:25:33;;;;;;;3.03;0.30;;;;;;;14.81;100.00;100416.03;6339977;22;20067;-55
2021/10/23 13:28:35;;;;;;;0.98;0.77;;;;;;;14.67;100.00;100414.06;6339256;22;20030;-54
2021/10/23 13:31:38;;;;;;;1.65;0.43;;;;;;;14.58;100.00;100417.00;6339613;22;20017;-54
2021/10/23 13:34:41;;;;;;;2.10;0.40;;;;;;;14.52;100.00;100421.00;6339372;22;20446;-54
2021/10/23 13:37:44;;;;;;;1.30;0.47;;;;;;;14.43;100.00;100421.91;6339054;22;20029;-55
2021/10/23 13:40:47;;;;;;;0.73;0.43;;;;;;;14.35;100.00;100403.97;6339509;22;20025;-55
2021/10/23 13:43:51;;;;;;;0.90;0.30;;;;;;;14.31;100.00;100395.75;6339805;22;20442;-55
2021/10/23 13:46:54;;;;;;;0.30;0.15;;;;;;;14.29;100.00;100405.91;6339436;22;20199;-55
2021/10/23 13:49:57;;;;;;;0.15;0.00;;;;;;;14.40;100.00;100403.28;6339775;22;20076;-55
2021/10/23 13:53:00;;;;;;;1.65;0.43;;;;;;;14.32;100.00;100394.50;6339405;22;20064;-55
2021/10/23 13:56:04;;;;;;;1.38;0.47;;;;;;;14.26;100.00;100390.03;6339831;22;20106;-55
2021/10/23 13:59:07;;;;;;;1.17;0.43;;;;;;;14.17;100.00;100390.16;6339712;22;20059;-55
2021/10/23 14:02:10;;;;;;;0.85;0.63;;;;;;;14.13;100.00;100392.41;6339476;22;20064;-55
2021/10/23 14:05:13;;;;;;;2.78;0.40;;;;;;;14.08;100.00;100390.28;6339330;22;20026;-55
2021/10/23 14:08:16;;;;;;;4.03;0.70;;;;;;;14.11;100.00;100380.91;6339653;22;20099;-55
2021/10/23 14:11:19;;;;;;;0.47;0.20;;;;;;;14.07;100.00;100371.94;6339214;22;20332;-55
2021/10/23 14:14:22;;;;;;;2.40;0.20;;;;;;;14.11;100.00;100372.50;6339420;22;20045;-55